Aeroporto :
LOGIN :

Iscrizione | Disclaimer

   EN    FR    IT 

 










Sommario :    VFR   VFR Marginale   IFR   IFR Intensivo   IFR Molto Intensivo
Visibilità : 
Base nubi : 
>= 8 km
>= 3000ft
5 / 8 km
1000 / 3000 ft
1500m / 5 km
500 / 1000 ft
800 / 1500m
200 / 500 ft
< 800m
< 200 ft
Simboli :   Temporali  Nebbia  Neve Forte  Precipitazioni Forti  Vento > 20 kt
SIGMETs :   Varie  Temporali  Ghiacco  Turbolenza  Onda orograficha  Ceneri Vulcaniche






- Altitudine del aeroporto : 10 ft
- Codice IATA : AAL


EKYT - Aalborg

ULTIMO METAR :
  • 101120Z AUTO 23008KT 9999 SCT170/// 17/10 Q1007

METARs OBSOLETI :
  • 101050Z AUTO 23006KT 170V260 9999 NCD 17/10 Q1007
  • 101020Z AUTO 23009KT 9999 FEW170/// 17/09 Q1007
  • 100950Z AUTO 24007KT 210V280 9999 FEW190/// 16/10 Q1007
  • 100920Z AUTO 24009KT 9999 SCT180/// 16/09 Q1007
  • 100850Z AUTO 25008KT 9999 FEW180/// 16/10 Q1008
  • 100820Z AUTO 22009KT 9999 FEW200/// 15/10 Q1008

TAF TAF EKYT
Valido dal 10 a 09 ore il 11 a 09 ore UTC


100819Z 1009/1109 23008KT 9999 FEW020 SCT200
BECMG 1012/1014 27012KT
TEMPO 1012/1021 -SHRA SCT020TCU
TEMPO 1021/1107 28015G25KT -SHRA SCT020TCU
TEMPO 1107/1109 28018G32KT



MetMap, La meteo Aeronautica in un colpo d'occhio ! - Copyright ORBIFLY Dicembre 2007 - Disclaimer

ORBIFLY MET'MAP TEAM :

Programmazione e sviluppo : Alexandra Zaïnal
Concezione : Baudouin d'Aumeries
Aiuto per la programmazione : Marc-Olivier Méhu
Supporto tecnico e logistico : Manuel Goepfert
Aiuto per la traduzione : Arnaldo La Scala

Contatto : metmap@orbifly.com




FONTI E CREDITI :

   NOAA